createdAt,value
2018-12-17T00:02:03.241Z,101506.80
2018-12-17T00:04:32.635Z,101506.80
2018-12-17T00:07:01.882Z,101504.11
2018-12-17T00:09:29.111Z,101500.92
2018-12-17T00:11:56.380Z,101506.06
2018-12-17T00:14:23.776Z,101505.54
2018-12-17T00:16:52.165Z,101509.55
2018-12-17T00:19:20.680Z,101512.80
2018-12-17T00:21:47.911Z,101515.72
2018-12-17T00:24:15.341Z,101515.70
2018-12-17T00:26:42.676Z,101523.59
2018-12-17T00:29:10.984Z,101523.27
2018-12-17T00:31:40.256Z,101517.56
2018-12-17T00:34:07.637Z,101528.75
2018-12-17T00:36:34.941Z,101525.46
2018-12-17T00:39:02.731Z,101530.31
2018-12-17T00:41:31.972Z,101521.91
2018-12-17T00:43:59.204Z,101527.47
2018-12-17T00:46:26.428Z,101535.21
2018-12-17T00:48:53.793Z,101536.27
2018-12-17T00:51:21.464Z,101542.39
2018-12-17T00:53:48.724Z,101548.90
2018-12-17T00:56:17.331Z,101542.95
2018-12-17T00:58:44.567Z,101547.31
2018-12-17T01:01:13.770Z,101544.70
2018-12-17T01:03:43.012Z,101553.83
2018-12-17T01:06:10.264Z,101551.11
2018-12-17T01:08:37.516Z,101560.89
2018-12-17T01:11:05.827Z,101557.00
2018-12-17T01:13:33.043Z,101566.53
2018-12-17T01:16:05.425Z,101563.34
2018-12-17T01:18:32.847Z,101565.03
2018-12-17T01:21:01.242Z,101564.42
2018-12-17T01:23:28.600Z,101567.91
2018-12-17T01:25:56.204Z,101575.74
2018-12-17T01:28:23.560Z,101574.17
2018-12-17T01:30:51.804Z,101575.70
2018-12-17T01:33:19.312Z,101568.41
2018-12-17T01:35:46.633Z,101569.70
2018-12-17T01:38:13.936Z,101565.30
2018-12-17T01:40:41.272Z,101570.42
2018-12-17T01:43:08.606Z,101580.06
2018-12-17T01:45:35.827Z,101579.50
2018-12-17T01:48:03.136Z,101580.83
2018-12-17T01:50:30.361Z,101579.66
2018-12-17T01:52:57.564Z,101580.17
2018-12-17T01:55:24.898Z,101579.73
2018-12-17T01:57:52.300Z,101581.34
2018-12-17T02:00:19.595Z,101585.05
2018-12-17T02:02:46.851Z,101593.13
2018-12-17T02:05:15.201Z,101583.76
2018-12-17T02:07:42.560Z,101582.69
2018-12-17T02:10:09.869Z,101583.03
2018-12-17T02:12:37.135Z,101579.34
2018-12-17T02:15:05.658Z,101584.55
2018-12-17T02:17:34.156Z,101583.48
2018-12-17T02:20:02.165Z,101575.91
2018-12-17T02:22:29.528Z,101579.39
2018-12-17T02:24:56.773Z,101580.46
2018-12-17T02:27:24.004Z,101579.89
2018-12-17T02:29:51.232Z,101578.55
2018-12-17T02:32:18.485Z,101582.59
2018-12-17T02:34:45.737Z,101585.04
2018-12-17T02:37:14.977Z,101589.03
2018-12-17T02:39:42.188Z,101593.30
2018-12-17T02:42:09.393Z,101590.10
2018-12-17T02:44:36.633Z,101591.34
2018-12-17T02:47:05.132Z,101586.22
2018-12-17T02:49:32.388Z,101590.09
2018-12-17T02:51:59.637Z,101586.34
2018-12-17T02:54:26.856Z,101593.05
2018-12-17T02:56:55.212Z,101594.59
2018-12-17T02:59:22.440Z,101597.83
2018-12-17T03:01:50.112Z,101595.30
2018-12-17T03:04:17.366Z,101607.49
2018-12-17T03:06:44.605Z,101595.86
2018-12-17T03:09:11.884Z,101609.16
2018-12-17T03:11:39.226Z,101613.44
2018-12-17T03:14:06.604Z,101620.16
2018-12-17T03:16:33.861Z,101617.73
2018-12-17T03:19:01.099Z,101618.98
2018-12-17T03:21:28.353Z,101621.83
2018-12-17T03:23:55.969Z,101618.52
2018-12-17T03:26:23.226Z,101616.30
2018-12-17T03:28:51.865Z,101621.37
2018-12-17T03:31:20.480Z,101613.20
2018-12-17T03:33:47.760Z,101608.11
2018-12-17T03:36:15.124Z,101615.89
2018-12-17T03:38:44.387Z,101629.97
2018-12-17T03:41:11.679Z,101631.25
2018-12-17T03:43:55.856Z,101628.30
2018-12-17T03:46:24.193Z,101626.39
2018-12-17T03:48:52.469Z,101631.08
2018-12-17T03:51:19.728Z,101650.20
2018-12-17T03:53:48.093Z,101653.35
2018-12-17T03:56:15.356Z,101648.94
2018-12-17T03:58:42.896Z,101649.05
2018-12-17T04:01:10.132Z,101646.98
2018-12-17T04:03:39.472Z,101655.39
2018-12-17T04:06:06.756Z,101650.67
2018-12-17T04:08:34.042Z,101647.75
2018-12-17T04:11:01.321Z,101649.31
2018-12-17T04:13:29.779Z,101648.77
2018-12-17T04:15:57.038Z,101652.02
2018-12-17T04:18:24.726Z,101647.08
2018-12-17T04:20:53.086Z,101651.91
2018-12-17T04:23:20.329Z,101658.58
2018-12-17T04:25:49.573Z,101661.55
2018-12-17T04:28:18.217Z,101661.22
2018-12-17T04:30:45.462Z,101663.52
2018-12-17T04:33:12.865Z,101666.08
2018-12-17T04:35:41.240Z,101670.42
2018-12-17T04:38:08.537Z,101676.48
2018-12-17T04:40:37.857Z,101674.45
2018-12-17T04:43:06.344Z,101681.91
2018-12-17T04:45:37.588Z,101682.96
2018-12-17T04:48:04.957Z,101686.06
2018-12-17T04:50:32.214Z,101688.75
2018-12-17T04:53:01.524Z,101682.43
2018-12-17T04:55:30.272Z,101678.71
2018-12-17T04:57:57.757Z,101697.17
2018-12-17T05:00:25.141Z,101701.04
2018-12-17T05:02:52.437Z,101691.61
2018-12-17T05:05:23.289Z,101697.34
2018-12-17T05:07:50.680Z,101697.13
2018-12-17T05:10:18.533Z,101704.28
2018-12-17T05:12:45.804Z,101702.27
2018-12-17T05:15:13.061Z,101705.89
2018-12-17T05:17:40.308Z,101715.53
2018-12-17T05:20:07.549Z,101712.86
2018-12-17T05:22:34.949Z,101718.75
2018-12-17T05:25:02.204Z,101718.27
2018-12-17T05:27:29.453Z,101718.66
2018-12-17T05:29:56.838Z,101719.36
2018-12-17T05:32:24.096Z,101718.96
2018-12-17T05:34:51.342Z,101718.30
2018-12-17T05:37:18.604Z,101722.24
2018-12-17T05:39:45.846Z,101728.67
2018-12-17T05:42:13.081Z,101732.77
2018-12-17T05:46:09.871Z,101736.73
2018-12-17T05:48:54.080Z,101746.91
2018-12-17T05:51:21.432Z,101745.60
2018-12-17T05:53:48.785Z,101757.17
2018-12-17T05:56:16.026Z,101756.41
2018-12-17T05:58:43.261Z,101753.73
2018-12-17T06:01:10.521Z,101753.44
2018-12-17T06:03:37.741Z,101749.47
2018-12-17T06:06:04.972Z,101746.50
2018-12-17T06:08:32.226Z,101746.21
2018-12-17T06:10:59.553Z,101760.22
2018-12-17T06:13:26.905Z,101763.17
2018-12-17T06:15:54.469Z,101765.25
2018-12-17T06:18:21.700Z,101764.55
2018-12-17T06:20:49.172Z,101764.66
2018-12-17T06:23:16.547Z,101766.75
2018-12-17T06:25:43.756Z,101774.97
2018-12-17T06:28:10.980Z,101768.87
2018-12-17T06:30:38.484Z,101772.53
2018-12-17T06:33:05.972Z,101778.09
2018-12-17T06:35:33.420Z,101783.19
2018-12-17T06:38:00.656Z,101778.66
2018-12-17T06:40:27.888Z,101787.36
2018-12-17T06:42:55.256Z,101792.15
2018-12-17T06:45:22.475Z,101798.03
2018-12-17T06:47:49.704Z,101802.38
2018-12-17T06:50:17.040Z,101804.23
2018-12-17T06:52:44.284Z,101808.30
2018-12-17T06:55:11.508Z,101806.81
2018-12-17T06:57:38.824Z,101815.78
2018-12-17T07:00:06.428Z,101820.54
2018-12-17T07:02:33.783Z,101822.84
2018-12-17T07:05:01.012Z,101829.06
2018-12-17T07:07:28.314Z,101835.70
2018-12-17T07:09:55.563Z,101838.56
2018-12-17T07:12:22.934Z,101832.06
2018-12-17T07:14:50.281Z,101840.91
2018-12-17T07:17:18.640Z,101843.73
2018-12-17T07:19:45.880Z,101839.00
2018-12-17T07:22:13.113Z,101842.29
2018-12-17T07:24:40.359Z,101846.30
2018-12-17T07:27:07.608Z,101853.31
2018-12-17T07:29:34.836Z,101850.19
2018-12-17T07:32:03.100Z,101845.53
2018-12-17T07:34:30.556Z,101851.91
2018-12-17T07:36:58.356Z,101849.14
2018-12-17T07:39:26.420Z,101862.49
2018-12-17T07:41:53.653Z,101859.96
2018-12-17T07:44:20.872Z,101863.03
2018-12-17T07:46:48.170Z,101866.30
2018-12-17T07:49:15.391Z,101869.24
2018-12-17T07:51:42.628Z,101865.46
2018-12-17T07:54:10.888Z,101870.69
2018-12-17T07:56:38.168Z,101871.63
2018-12-17T07:59:05.424Z,101877.37
2018-12-17T08:01:32.852Z,101870.14
2018-12-17T08:04:00.192Z,101875.55
2018-12-17T08:06:27.400Z,101883.91
2018-12-17T08:08:54.696Z,101887.21
2018-12-17T08:11:21.951Z,101886.62
2018-12-17T08:13:49.218Z,101888.30
2018-12-17T08:16:16.557Z,101884.08
2018-12-17T08:18:43.800Z,101888.50
2018-12-17T08:21:11.028Z,101886.41
2018-12-17T08:23:38.256Z,101889.25
2018-12-17T08:26:05.484Z,101897.72
2018-12-17T08:28:32.757Z,101889.33
2018-12-17T08:30:59.977Z,101896.66
2018-12-17T08:33:27.208Z,101904.45
2018-12-17T08:35:54.424Z,101906.11
2018-12-17T08:38:21.649Z,101908.00
2018-12-17T08:40:48.868Z,101916.44
2018-12-17T08:43:16.112Z,101914.50
2018-12-17T08:45:43.349Z,101910.30
2018-12-17T08:48:10.703Z,101917.87
2018-12-17T08:50:37.932Z,101913.92
2018-12-17T08:53:05.164Z,101918.17
2018-12-17T08:55:32.390Z,101926.41
2018-12-17T08:57:59.637Z,101919.72
2018-12-17T09:00:26.976Z,101922.59
2018-12-17T09:02:55.385Z,101919.42
2018-12-17T09:05:22.622Z,101923.05
2018-12-17T09:07:50.193Z,101926.56
2018-12-17T09:10:17.424Z,101928.75
2018-12-17T09:12:44.668Z,101934.22
2018-12-17T09:15:11.914Z,101934.07
2018-12-17T09:17:39.144Z,101932.39
2018-12-17T09:20:07.148Z,101937.55
2018-12-17T09:22:34.507Z,101939.30
2018-12-17T09:25:01.864Z,101936.69
2018-12-17T09:27:29.332Z,101934.54
2018-12-17T09:29:56.599Z,101941.14
2018-12-17T09:32:24.095Z,101946.92
2018-12-17T09:34:51.324Z,101941.05
2018-12-17T09:37:18.641Z,101945.64
2018-12-17T09:39:45.924Z,101934.43
2018-12-17T09:42:13.184Z,101936.25
2018-12-17T09:44:40.464Z,101935.55
2018-12-17T09:47:07.728Z,101948.30
2018-12-17T09:49:34.980Z,101947.22
2018-12-17T09:52:02.272Z,101947.31
2018-12-17T09:54:29.510Z,101947.59
2018-12-17T09:56:56.744Z,101947.00
2018-12-17T09:59:23.998Z,101948.55
2018-12-17T10:01:51.575Z,101943.58
2018-12-17T10:04:19.251Z,101950.89
2018-12-17T10:06:46.712Z,101947.25
2018-12-17T10:09:13.957Z,101947.20
2018-12-17T10:11:41.212Z,101949.32
2018-12-17T10:14:08.495Z,101950.95
2018-12-17T10:16:36.013Z,101946.14
2018-12-17T10:19:03.264Z,101940.03
2018-12-17T10:21:30.809Z,101930.45
2018-12-17T10:23:58.573Z,101927.38
2018-12-17T10:26:26.956Z,101924.20
2018-12-17T10:28:54.804Z,101922.05
2018-12-17T10:31:22.036Z,101929.13
2018-12-17T10:33:49.272Z,101929.98
2018-12-17T10:36:16.623Z,101926.30
2018-12-17T10:38:43.892Z,101926.08
2018-12-17T10:41:11.163Z,101922.29
2018-12-17T10:43:41.518Z,101925.32
2018-12-17T10:46:10.787Z,101922.47
2018-12-17T10:48:39.068Z,101926.52
2018-12-17T10:51:06.328Z,101937.41
2018-12-17T10:53:33.585Z,101935.17
2018-12-17T10:56:00.820Z,101930.73
2018-12-17T10:58:30.244Z,101933.64
2018-12-17T11:01:03.168Z,101924.77
2018-12-17T11:03:35.200Z,101927.81
2018-12-17T11:06:06.488Z,101927.60
2018-12-17T11:08:33.835Z,101927.57
2018-12-17T11:11:01.104Z,101936.46
2018-12-17T11:13:30.385Z,101940.06
2018-12-17T11:15:57.916Z,101940.32
2018-12-17T11:18:25.292Z,101940.36
2018-12-17T11:20:52.617Z,101947.69
2018-12-17T11:23:19.989Z,101949.09
2018-12-17T11:25:47.253Z,101947.66
2018-12-17T11:28:15.606Z,101945.69
2018-12-17T11:30:46.537Z,101946.39
2018-12-17T11:33:13.501Z,101947.73
2018-12-17T11:35:41.344Z,101946.89
2018-12-17T11:38:08.697Z,101942.02
2018-12-17T11:40:36.068Z,101939.48
2018-12-17T11:43:04.208Z,101937.73
2018-12-17T11:45:31.689Z,101939.78
2018-12-17T11:47:58.960Z,101933.75
2018-12-17T11:50:26.189Z,101942.67
2018-12-17T11:52:53.532Z,101941.11
2018-12-17T11:55:21.056Z,101940.69
2018-12-17T11:58:04.296Z,101947.40
2018-12-17T12:00:33.864Z,101951.33
2018-12-17T12:03:01.225Z,101950.75
2018-12-17T12:05:28.617Z,101953.09
2018-12-17T12:07:55.896Z,101954.95
2018-12-17T12:10:23.293Z,101955.05
2018-12-17T12:12:50.644Z,101956.16
2018-12-17T12:15:18.064Z,101946.23
2018-12-17T12:17:45.308Z,101947.47
2018-12-17T12:20:12.692Z,101941.56
2018-12-17T12:22:40.033Z,101942.80
2018-12-17T12:25:07.389Z,101951.24
2018-12-17T12:27:34.652Z,101943.02
2018-12-17T12:30:01.929Z,101953.73
2018-12-17T12:32:29.530Z,101954.24
2018-12-17T12:34:57.092Z,101954.38
2018-12-17T12:37:24.319Z,101961.86
2018-12-17T12:39:51.557Z,101970.10
2018-12-17T12:42:18.797Z,101970.70
2018-12-17T12:44:46.082Z,101965.23
2018-12-17T12:47:13.340Z,101967.64
2018-12-17T12:49:40.589Z,101965.06
2018-12-17T12:52:07.823Z,101963.42
2018-12-17T12:54:36.128Z,101974.94
2018-12-17T12:57:04.467Z,101974.00
2018-12-17T12:59:39.881Z,101981.14
2018-12-17T13:02:14.335Z,101982.14
2018-12-17T13:04:43.069Z,101984.28
2018-12-17T13:07:10.421Z,101985.79
2018-12-17T13:09:38.772Z,101986.48
2018-12-17T13:12:05.997Z,101985.42
2018-12-17T13:14:33.236Z,101985.28
2018-12-17T13:17:05.040Z,101991.73
2018-12-17T13:19:32.333Z,101994.41
2018-12-17T13:21:59.552Z,101999.48
2018-12-17T13:24:26.797Z,102004.66
2018-12-17T13:26:54.008Z,101995.80
2018-12-17T13:29:21.260Z,101986.44
2018-12-17T13:31:48.484Z,101987.37
2018-12-17T13:34:15.715Z,102003.05
2018-12-17T13:36:42.940Z,101996.85
2018-12-17T13:39:10.188Z,101995.37
2018-12-17T13:41:37.533Z,101990.94
2018-12-17T13:44:04.818Z,101993.64
2018-12-17T13:46:32.064Z,101991.83
2018-12-17T13:48:59.632Z,101990.94
2018-12-17T13:51:33.432Z,101996.23
2018-12-17T13:54:01.400Z,101989.50
2018-12-17T13:56:29.008Z,101989.81
2018-12-17T13:58:56.564Z,101997.77
2018-12-17T14:01:24.032Z,102001.67
2018-12-17T14:03:51.264Z,102000.94
2018-12-17T14:06:18.952Z,102004.59
2018-12-17T14:08:46.352Z,102000.53
2018-12-17T14:11:13.597Z,102002.89
2018-12-17T14:13:40.877Z,102002.34
2018-12-17T14:16:15.029Z,102001.73
2018-12-17T14:18:49.349Z,101998.73
2018-12-17T14:21:22.636Z,101996.78
2018-12-17T14:23:49.868Z,102003.91
2018-12-17T14:26:17.120Z,102005.25
2018-12-17T14:28:44.520Z,102007.84
2018-12-17T14:31:11.760Z,102011.16
2018-12-17T14:33:39.013Z,102009.71
2018-12-17T14:36:08.918Z,102020.95
2018-12-17T14:38:37.400Z,102014.13
2018-12-17T14:41:05.328Z,102015.23
2018-12-17T14:43:33.047Z,102020.17
2018-12-17T14:46:00.288Z,102027.96
2018-12-17T14:48:27.564Z,102028.31
2018-12-17T14:50:54.830Z,102037.37
2018-12-17T14:53:22.176Z,102044.28
2018-12-17T14:55:49.681Z,102038.25
2018-12-17T14:58:16.928Z,102036.92
2018-12-17T15:00:44.150Z,102038.78
2018-12-17T15:03:11.388Z,102043.61
2018-12-17T15:05:38.979Z,102059.59
2018-12-17T15:08:06.316Z,102061.31
2018-12-17T15:10:33.569Z,102064.20
2018-12-17T15:13:01.250Z,102060.36
2018-12-17T15:15:28.485Z,102053.28
2018-12-17T15:17:56.824Z,102046.59
2018-12-17T15:20:24.142Z,102058.73
2018-12-17T15:22:51.369Z,102066.00
2018-12-17T15:25:18.599Z,102059.36
2018-12-17T15:27:45.873Z,102063.36
2018-12-17T15:30:13.338Z,102046.49
2018-12-17T15:32:40.696Z,102051.20
2018-12-17T15:35:07.941Z,102050.77
2018-12-17T15:37:35.176Z,102050.55
2018-12-17T15:40:03.172Z,102047.16
2018-12-17T15:42:32.680Z,102051.77
2018-12-17T15:44:59.916Z,102050.09
2018-12-17T15:47:27.488Z,102047.66
2018-12-17T15:49:54.716Z,102046.27
2018-12-17T15:52:21.977Z,102054.58
2018-12-17T15:54:49.265Z,102052.69
2018-12-17T15:57:16.581Z,102053.73
2018-12-17T15:59:43.801Z,102058.11
2018-12-17T16:02:11.040Z,102054.56
2018-12-17T16:04:38.280Z,102060.03
2018-12-17T16:07:05.527Z,102055.72
2018-12-17T16:09:32.956Z,102061.67
2018-12-17T16:12:00.197Z,102055.30
2018-12-17T16:14:28.473Z,102064.88
2018-12-17T16:16:55.740Z,102062.91
2018-12-17T16:19:22.989Z,102054.53
2018-12-17T16:21:50.425Z,102062.59
2018-12-17T16:24:19.680Z,102061.12
2018-12-17T16:26:46.942Z,102064.14
2018-12-17T16:29:14.180Z,102058.86
2018-12-17T16:31:41.584Z,102071.30
2018-12-17T16:34:08.829Z,102077.91
2018-12-17T16:36:36.404Z,102080.92
2018-12-17T16:39:06.201Z,102092.89
2018-12-17T16:41:35.472Z,102100.50
2018-12-17T16:44:02.852Z,102119.16
2018-12-17T16:46:30.228Z,102116.08
2018-12-17T16:48:57.512Z,102111.51
2018-12-17T16:51:24.773Z,102118.39
2018-12-17T16:53:52.029Z,102116.05
2018-12-17T16:56:19.316Z,102117.09
2018-12-17T16:59:03.489Z,102116.08
2018-12-17T17:01:30.720Z,102111.73
2018-12-17T17:03:57.972Z,102104.40
2018-12-17T17:06:25.236Z,102102.91
2018-12-17T17:08:52.545Z,102112.59
2018-12-17T17:11:19.800Z,102118.13
2018-12-17T17:13:47.257Z,102115.33
2018-12-17T17:16:14.769Z,102113.94
2018-12-17T17:18:42.218Z,102122.15
2018-12-17T17:21:09.456Z,102120.75
2018-12-17T17:23:36.700Z,102120.81
2018-12-17T17:26:04.104Z,102126.38
2018-12-17T17:28:31.396Z,102132.48
2018-12-17T17:30:58.792Z,102138.58
2018-12-17T17:33:26.257Z,102138.70
2018-12-17T17:35:54.512Z,102146.69
2018-12-17T17:38:21.769Z,102134.48
2018-12-17T17:40:50.472Z,102136.04
2018-12-17T17:43:18.861Z,102143.70
2018-12-17T17:45:46.127Z,102142.06
2018-12-17T17:48:14.481Z,102141.67
2018-12-17T17:53:38.505Z,102145.00
2018-12-17T17:56:05.801Z,102149.73
2018-12-17T17:58:33.265Z,102159.86
2018-12-17T18:01:00.636Z,102156.92
2018-12-17T18:03:27.870Z,102156.30
2018-12-17T18:05:55.125Z,102155.70
2018-12-17T18:08:22.352Z,102161.55
2018-12-17T18:10:49.581Z,102158.73
2018-12-17T18:13:16.848Z,102166.04
2018-12-17T18:15:44.100Z,102165.20
2018-12-17T18:18:11.336Z,102173.97
2018-12-17T18:20:38.719Z,102166.84
2018-12-17T18:23:05.948Z,102169.59
2018-12-17T18:25:33.320Z,102162.40
2018-12-17T18:28:00.610Z,102165.78
2018-12-17T18:30:27.861Z,102169.98
2018-12-17T18:32:55.587Z,102167.61
2018-12-17T18:35:23.246Z,102167.28
2018-12-17T18:37:50.500Z,102172.13
2018-12-17T18:40:19.223Z,102169.19
2018-12-17T18:42:46.600Z,102170.66
2018-12-17T18:45:13.833Z,102172.30
2018-12-17T18:47:41.108Z,102171.78
2018-12-17T18:50:09.965Z,102169.48
2018-12-17T18:52:37.344Z,102170.66
2018-12-17T18:55:05.380Z,102170.70
2018-12-17T18:57:32.640Z,102173.03
2018-12-17T19:00:00.001Z,102174.59
2018-12-17T19:02:33.062Z,102174.48
2018-12-17T19:04:57.344Z,102172.06
2018-12-17T19:07:24.931Z,102172.73
2018-12-17T19:09:52.220Z,102174.84
2018-12-17T19:12:19.868Z,102176.91
2018-12-17T19:14:47.236Z,102174.77
2018-12-17T19:17:15.592Z,102171.69
2018-12-17T19:19:43.214Z,102170.94
2018-12-17T19:22:11.604Z,102179.55
2018-12-17T19:24:38.913Z,102178.95
2018-12-17T19:27:06.337Z,102173.38
2018-12-17T19:29:33.601Z,102178.70
2018-12-17T19:32:02.884Z,102181.74
2018-12-17T19:34:30.439Z,102179.37
2018-12-17T19:36:57.702Z,102181.98
2018-12-17T19:39:24.953Z,102182.37
2018-12-17T19:41:52.301Z,102180.00
2018-12-17T19:44:36.660Z,102182.94
2018-12-17T19:47:03.916Z,102185.03
2018-12-17T19:49:31.305Z,102178.85
2018-12-17T19:51:58.720Z,102182.77
2018-12-17T19:54:25.963Z,102183.91
2018-12-17T19:56:53.472Z,102187.16
2018-12-17T19:59:21.912Z,102187.94
2018-12-17T20:01:49.188Z,102190.13
2018-12-17T20:04:18.588Z,102190.08
2018-12-17T20:06:46.041Z,102190.63
2018-12-17T20:09:13.436Z,102192.95
2018-12-17T20:11:41.112Z,102190.35
2018-12-17T20:14:09.397Z,102189.91
2018-12-17T20:16:36.780Z,102189.23
2018-12-17T20:19:04.057Z,102190.93
2018-12-17T20:21:31.444Z,102192.49
2018-12-17T20:23:58.688Z,102194.86
2018-12-17T20:26:25.928Z,102193.91
2018-12-17T20:28:53.444Z,102190.22
2018-12-17T20:31:20.678Z,102189.85
2018-12-17T20:33:47.936Z,102190.48
2018-12-17T20:36:15.320Z,102182.04
2018-12-17T20:38:42.612Z,102184.45
2018-12-17T20:41:09.888Z,102187.16
2018-12-17T20:43:37.176Z,102190.20
2018-12-17T20:46:04.556Z,102194.27
2018-12-17T20:48:31.809Z,102197.30
2018-12-17T20:50:59.124Z,102202.63
2018-12-17T20:53:26.344Z,102197.62
2018-12-17T20:55:53.616Z,102201.06
2018-12-17T20:58:21.020Z,102198.24
2018-12-17T21:00:48.288Z,102194.14
2018-12-17T21:03:15.573Z,102195.38
2018-12-17T21:05:43.104Z,102198.42
2018-12-17T21:08:10.726Z,102193.02
2018-12-17T21:10:39.093Z,102198.38
2018-12-17T21:13:06.501Z,102194.52
2018-12-17T21:15:33.747Z,102199.44
2018-12-17T21:18:01.004Z,102198.38
2018-12-17T21:20:28.249Z,102198.47
2018-12-17T21:22:55.608Z,102191.65
2018-12-17T21:25:22.960Z,102187.83
2018-12-17T21:27:51.392Z,102184.39
2018-12-17T21:30:18.634Z,102191.65
2018-12-17T21:32:45.988Z,102183.38
2018-12-17T21:35:13.340Z,102182.20
2018-12-17T21:37:40.593Z,102179.39
2018-12-17T21:40:08.493Z,102178.66
2018-12-17T21:42:35.753Z,102184.17
2018-12-17T21:45:05.417Z,102188.45
2018-12-17T21:47:34.345Z,102189.00
2018-12-17T21:50:02.245Z,102181.06
2018-12-17T21:52:29.801Z,102185.43
2018-12-17T21:54:57.032Z,102178.37
2018-12-17T21:57:24.280Z,102186.48
2018-12-17T21:59:51.541Z,102189.68
2018-12-17T22:02:19.062Z,102190.58
2018-12-17T22:04:46.617Z,102187.61
2018-12-17T22:07:13.978Z,102189.13
2018-12-17T22:09:41.500Z,102183.20
2018-12-17T22:12:08.757Z,102183.88
2018-12-17T22:14:36.107Z,102186.86
2018-12-17T22:17:03.625Z,102193.75
2018-12-17T22:19:30.969Z,102194.77
2018-12-17T22:21:59.418Z,102193.68
2018-12-17T22:24:26.924Z,102194.31
2018-12-17T22:26:54.167Z,102189.39
2018-12-17T22:29:21.532Z,102191.38
2018-12-17T22:31:48.960Z,102192.22
2018-12-17T22:34:16.320Z,102186.28
2018-12-17T22:36:43.541Z,102190.90
2018-12-17T22:39:11.000Z,102189.29
2018-12-17T22:41:38.236Z,102191.88
2018-12-17T22:44:05.468Z,102195.85
2018-12-17T22:46:33.060Z,102196.77
2018-12-17T22:49:00.637Z,102194.58
2018-12-17T22:51:27.928Z,102194.52
2018-12-17T22:53:55.340Z,102199.44
2018-12-17T22:56:23.593Z,102193.31
2018-12-17T22:58:50.848Z,102196.01
2018-12-17T23:01:18.240Z,102202.08
2018-12-17T23:03:45.588Z,102200.88
2018-12-17T23:06:12.829Z,102201.48
2018-12-17T23:08:51.360Z,102193.17
2018-12-17T23:11:34.239Z,102194.92
2018-12-17T23:14:13.173Z,102187.73
2018-12-17T23:16:52.016Z,102181.27
2018-12-17T23:19:18.509Z,102184.12
2018-12-17T23:21:47.884Z,102182.66
2018-12-17T23:24:17.125Z,102179.61
2018-12-17T23:26:44.520Z,102180.14
2018-12-17T23:29:11.852Z,102173.87
2018-12-17T23:31:39.292Z,102180.85
2018-12-17T23:34:06.680Z,102175.19
2018-12-17T23:36:33.900Z,102176.36
2018-12-17T23:39:01.337Z,102181.34
2018-12-17T23:41:30.612Z,102178.47
2018-12-17T23:43:57.967Z,102174.77
2018-12-17T23:46:25.192Z,102178.75
2018-12-17T23:48:52.580Z,102177.16
2018-12-17T23:51:20.153Z,102179.86
2018-12-17T23:53:47.409Z,102179.15
2018-12-17T23:56:15.480Z,102184.44
2018-12-17T23:58:42.832Z,102181.94
